Time;durP1;ratioP1;P1;durP2;ratioP2;P2;SDS_P1;SDS_P2;PMS_P1;PMS_P2;Temp;Humidity;BMP_temperature;BMP_pressure;BME280_temperature;BME280_humidity;BME280_pressure;Samples;Min_cycle;Max_cycle;Signal;HPM_P1;HPM_P2
2022/08/09 00:00:49;;;;;;;1.15;0.45;;;;;;;16.70;100.00;102104.41;5018407;28;20574;-49
2022/08/09 00:03:15;;;;;;;1.15;0.40;;;;;;;16.70;100.00;102107.94;5024916;28;20033;-48
2022/08/09 00:05:40;;;;;;;4.38;0.40;;;;;;;16.62;100.00;102115.25;5018925;28;20030;-51
2022/08/09 00:08:09;;;;;;;1.38;0.30;;;;;;;16.49;100.00;102110.59;5011472;28;20037;-54
2022/08/09 00:10:34;;;;;;;0.85;0.30;;;;;;;16.08;100.00;102112.03;5019500;28;20080;-51
2022/08/09 00:13:00;;;;;;;0.13;0.13;;;;;;;15.68;100.00;102116.81;5023607;28;20482;-49
2022/08/09 00:15:25;;;;;;;1.45;0.25;;;;;;;15.41;100.00;102120.97;5017245;28;20052;-51
2022/08/09 00:17:51;;;;;;;0.95;0.57;;;;;;;15.20;100.00;102128.84;5019357;28;20106;-54
2022/08/09 00:20:16;;;;;;;0.63;0.63;;;;;;;15.03;100.00;102131.69;5019766;28;20033;-54
2022/08/09 00:22:42;;;;;;;1.75;0.40;;;;;;;14.89;100.00;102140.47;5019999;28;20472;-51
2022/08/09 00:25:08;;;;;;;0.20;0.20;;;;;;;14.72;100.00;102145.13;5019361;28;20033;-51
2022/08/09 00:27:34;;;;;;;2.05;0.20;;;;;;;14.59;100.00;102140.34;5016811;28;20043;-48
2022/08/09 00:30:00;;;;;;;1.40;0.35;;;;;;;14.57;100.00;102137.03;5019185;28;20037;-49
2022/08/09 00:32:25;;;;;;;1.48;0.30;;;;;;;14.53;100.00;102135.75;5017416;28;20294;-49
2022/08/09 00:34:51;;;;;;;0.43;0.43;;;;;;;14.55;100.00;102136.38;5015381;28;20391;-52
2022/08/09 00:37:16;;;;;;;1.33;0.17;;;;;;;14.53;100.00;102134.88;5017438;28;20021;-48
2022/08/09 00:39:42;;;;;;;0.22;0.22;;;;;;;14.42;100.00;102136.09;5020208;28;20112;-55
2022/08/09 00:42:07;;;;;;;0.43;0.30;;;;;;;14.28;100.00;102134.19;5013710;28;20026;-52
2022/08/09 00:44:33;;;;;;;1.95;0.40;;;;;;;14.14;100.00;102139.22;5009231;28;20029;-54
2022/08/09 00:46:58;;;;;;;0.17;0.17;;;;;;;13.99;100.00;102142.81;5011155;28;20018;-50
2022/08/09 00:49:23;;;;;;;1.25;0.35;;;;;;;13.89;100.00;102141.19;5010712;28;20030;-51
2022/08/09 00:51:49;;;;;;;0.85;0.50;;;;;;;13.77;100.00;102155.06;5017418;28;20033;-49
2022/08/09 00:54:15;;;;;;;0.30;0.30;;;;;;;13.61;100.00;102146.13;5016750;28;20051;-51
2022/08/09 00:56:40;;;;;;;0.60;0.25;;;;;;;13.52;100.00;102149.78;5016759;28;20056;-49
2022/08/09 00:59:06;;;;;;;0.95;0.50;;;;;;;13.53;100.00;102148.81;5018454;28;20361;-50
2022/08/09 01:01:36;;;;;;;0.35;0.35;;;;;;;13.55;100.00;102154.78;5012349;28;20222;-55
2022/08/09 01:04:11;;;;;;;4.40;0.30;;;;;;;13.46;100.00;102153.13;5016652;28;20120;-55
2022/08/09 01:07:15;;;;;;;1.30;0.20;;;;;;;13.41;100.00;102150.16;5012217;28;20025;-50
2022/08/09 01:09:47;;;;;;;0.40;0.40;;;;;;;13.33;100.00;102163.47;5019511;28;20026;-54
2022/08/09 01:12:40;;;;;;;0.32;0.20;;;;;;;13.34;100.00;102151.81;4979893;28;1115808;-48
2022/08/09 01:15:09;;;;;;;1.17;0.20;;;;;;;13.38;100.00;102150.50;5020969;28;20120;-52
2022/08/09 01:17:46;;;;;;;5.43;1.23;;;;;;;13.35;100.00;102150.84;5020064;28;20033;-53
2022/08/09 01:20:21;;;;;;;0.90;0.82;;;;;;;13.22;100.00;102149.47;5016894;28;20049;-51
2022/08/09 01:23:34;;;;;;;2.75;0.70;;;;;;;13.00;100.00;102158.94;5021749;28;20022;-53
2022/08/09 01:26:11;;;;;;;1.45;0.47;;;;;;;12.93;100.00;102162.44;5044959;28;20036;-53
2022/08/09 01:28:42;;;;;;;1.02;0.82;;;;;;;12.91;100.00;102157.31;5036679;28;20432;-52
2022/08/09 01:31:14;;;;;;;4.68;0.82;;;;;;;12.88;100.00;102160.28;5027768;28;20053;-53
2022/08/09 01:33:43;;;;;;;0.88;0.88;;;;;;;12.81;100.00;102172.59;5020905;28;20430;-55
2022/08/09 01:36:15;;;;;;;3.53;0.98;;;;;;;12.79;100.00;102167.44;5023109;28;20026;-52
2022/08/09 01:38:44;;;;;;;1.92;0.20;;;;;;;12.77;100.00;102164.09;5024100;28;20543;-50
2022/08/09 01:41:15;;;;;;;2.40;0.80;;;;;;;12.78;100.00;102168.44;5023685;28;20462;-53
2022/08/09 01:43:45;;;;;;;0.60;0.35;;;;;;;12.78;100.00;102168.44;5022755;28;20036;-50
2022/08/09 01:46:12;;;;;;;4.25;0.57;;;;;;;12.73;100.00;102173.41;5012783;28;20113;-53
2022/08/09 01:48:39;;;;;;;0.77;0.77;;;;;;;12.71;100.00;102182.56;5022372;28;20033;-53
2022/08/09 01:51:07;;;;;;;1.33;1.02;;;;;;;12.63;100.00;102173.56;5020606;28;20045;-50
2022/08/09 01:53:34;;;;;;;0.40;0.40;;;;;;;12.58;100.00;102178.53;5020171;28;20036;-49
2022/08/09 01:56:00;;;;;;;3.25;0.70;;;;;;;12.53;100.00;102182.69;5020464;28;20033;-54
2022/08/09 01:58:28;;;;;;;1.30;0.40;;;;;;;12.43;100.00;102173.00;5026226;28;20025;-51
2022/08/09 02:00:56;;;;;;;1.00;0.30;;;;;;;12.33;100.00;102172.31;5021792;28;20025;-50
2022/08/09 02:03:22;;;;;;;4.90;0.70;;;;;;;12.29;100.00;102175.44;5024566;28;20360;-52
2022/08/09 02:05:51;;;;;;;1.25;0.50;;;;;;;12.25;100.00;102176.78;5018995;28;20021;-55
2022/08/09 02:08:20;;;;;;;2.20;0.38;;;;;;;12.20;100.00;102177.25;5026679;28;20371;-52
2022/08/09 02:10:49;;;;;;;1.23;0.43;;;;;;;12.10;100.00;102185.34;5020291;28;20046;-54
2022/08/09 02:13:17;;;;;;;1.95;0.45;;;;;;;11.97;100.00;102180.47;5024257;28;20045;-49
2022/08/09 02:15:48;;;;;;;0.68;0.68;;;;;;;11.91;100.00;102178.44;5024430;28;20146;-50
2022/08/09 02:18:16;;;;;;;0.77;0.52;;;;;;;11.91;100.00;102189.09;5023205;28;20398;-49
2022/08/09 02:20:45;;;;;;;2.38;0.55;;;;;;;11.92;100.00;102180.09;5019439;28;20196;-49
2022/08/09 02:23:16;;;;;;;0.38;0.38;;;;;;;11.91;100.00;102174.97;5023890;28;20076;-50
2022/08/09 02:25:44;;;;;;;2.38;0.73;;;;;;;11.90;100.00;102174.13;5017278;28;20037;-51
2022/08/09 02:28:17;;;;;;;3.30;0.60;;;;;;;11.87;100.00;102171.78;5020299;28;20380;-52
2022/08/09 02:30:49;;;;;;;1.73;1.35;;;;;;;11.88;100.00;102178.78;5017775;28;20025;-48
2022/08/09 02:33:17;;;;;;;;;;;;;;;11.86;100.00;102172.78;5027820;28;20087;-50
2022/08/09 02:35:44;;;;;;;1.75;0.63;;;;;;;11.85;100.00;102176.41;5018260;28;19921;-52
2022/08/09 02:38:14;;;;;;;2.55;0.40;;;;;;;11.83;100.00;102169.59;5024192;28;20453;-51
2022/08/09 02:40:42;;;;;;;5.45;0.80;;;;;;;11.79;100.00;102163.72;5023243;28;20049;-49
2022/08/09 02:43:09;;;;;;;1.45;0.75;;;;;;;11.69;100.00;102163.84;5019362;28;20125;-49
2022/08/09 02:45:41;;;;;;;0.60;0.40;;;;;;;11.58;100.00;102166.75;5024970;28;20037;-51
2022/08/09 02:48:10;;;;;;;0.82;0.60;;;;;;;11.46;100.00;102163.56;5022410;28;20025;-55
2022/08/09 02:50:44;;;;;;;2.58;0.50;;;;;;;11.43;100.00;102169.16;5023541;28;20029;-53
2022/08/09 02:53:24;;;;;;;0.17;0.17;;;;;;;11.42;100.00;102170.16;5022877;28;20037;-50
2022/08/09 02:55:51;;;;;;;1.90;0.60;;;;;;;11.40;100.00;102168.63;5020006;28;20060;-53
2022/08/09 02:58:18;;;;;;;0.95;0.55;;;;;;;11.35;100.00;102174.41;5022969;28;20486;-55
2022/08/09 03:00:45;;;;;;;0.63;0.60;;;;;;;11.32;100.00;102177.38;5025609;28;20045;-55
2022/08/09 03:03:12;;;;;;;1.50;0.70;;;;;;;11.23;100.00;102179.16;5023911;28;20054;-51
2022/08/09 03:05:40;;;;;;;1.98;0.60;;;;;;;11.13;100.00;102173.91;5015082;28;20061;-49
2022/08/09 03:08:08;;;;;;;0.98;0.68;;;;;;;11.12;100.00;102174.06;5022746;28;20141;-56
2022/08/09 03:10:35;;;;;;;0.52;0.40;;;;;;;11.12;100.00;102174.88;5024985;28;20060;-54
2022/08/09 03:13:01;;;;;;;0.88;0.80;;;;;;;11.14;100.00;102175.56;5024751;28;20033;-50
2022/08/09 03:15:28;;;;;;;0.98;0.98;;;;;;;11.10;100.00;102179.53;5025149;28;20029;-55
2022/08/09 03:17:53;;;;;;;0.68;0.68;;;;;;;11.03;100.00;102175.81;5027879;28;20454;-54
2022/08/09 03:20:20;;;;;;;0.55;0.55;;;;;;;11.00;100.00;102175.31;5012330;28;20034;-51
2022/08/09 03:22:46;;;;;;;0.93;0.30;;;;;;;10.98;100.00;102178.09;5026347;28;20462;-55
2022/08/09 03:25:13;;;;;;;0.43;0.43;;;;;;;10.99;100.00;102182.41;5025596;28;20394;-49
2022/08/09 03:27:41;;;;;;;2.97;1.15;;;;;;;10.98;100.00;102178.09;5027187;28;20466;-54
2022/08/09 03:30:07;;;;;;;1.38;0.50;;;;;;;10.93;100.00;102175.06;5021618;28;20053;-53
2022/08/09 03:32:34;;;;;;;0.73;0.35;;;;;;;10.88;100.00;102172.03;5026923;28;20056;-55
2022/08/09 03:34:59;;;;;;;0.68;0.50;;;;;;;10.85;100.00;102175.81;5023582;28;20026;-52
2022/08/09 03:37:27;;;;;;;4.85;1.13;;;;;;;10.85;100.00;102181.13;5015869;28;20038;-55
2022/08/09 03:39:52;;;;;;;0.60;0.40;;;;;;;10.76;100.00;102175.88;5016530;28;20516;-50
2022/08/09 03:42:18;;;;;;;1.27;0.75;;;;;;;10.72;100.00;102170.06;5023317;28;20435;-54
2022/08/09 03:44:43;;;;;;;1.00;0.50;;;;;;;10.70;100.00;102172.03;5021913;28;20033;-49
2022/08/09 03:47:09;;;;;;;3.00;0.68;;;;;;;10.64;100.00;102167.34;5023083;28;20029;-51
2022/08/09 03:49:35;;;;;;;1.02;0.40;;;;;;;10.57;100.00;102175.03;5025783;28;20049;-55
2022/08/09 03:52:01;;;;;;;0.52;0.40;;;;;;;10.49;100.00;102164.34;5020258;28;20033;-50
2022/08/09 03:54:33;;;;;;;0.65;0.65;;;;;;;10.44;100.00;102170.09;5024212;28;20037;-50
2022/08/09 03:56:59;;;;;;;;;;;;;;;10.44;100.00;102179.88;5013024;28;20022;-51
2022/08/09 03:59:26;;;;;;;0.95;0.70;;;;;;;10.45;100.00;102184.19;5019843;28;19921;-55
2022/08/09 04:01:52;;;;;;;0.80;0.80;;;;;;;10.45;100.00;102182.38;5024349;28;20026;-54
2022/08/09 04:04:17;;;;;;;1.73;0.45;;;;;;;10.46;100.00;102181.41;5030108;28;20120;-54
2022/08/09 04:06:43;;;;;;;1.27;0.88;;;;;;;10.43;100.00;102186.19;5030724;28;20549;-50
2022/08/09 04:09:08;;;;;;;0.40;0.40;;;;;;;10.36;100.00;102185.09;5019020;28;20038;-55
2022/08/09 04:11:55;;;;;;;1.65;0.30;;;;;;;10.28;100.00;102193.78;5015183;28;20509;-52
2022/08/09 04:14:21;;;;;;;0.57;0.57;;;;;;;10.24;100.00;102198.50;5024773;28;20109;-55
2022/08/09 04:16:47;;;;;;;0.73;0.60;;;;;;;10.20;100.00;102197.13;5024919;28;20104;-51
2022/08/09 04:19:12;;;;;;;2.03;0.88;;;;;;;10.18;100.00;102200.91;5024286;28;20112;-50
2022/08/09 04:21:41;;;;;;;1.08;0.32;;;;;;;10.18;100.00;102195.59;5025767;28;20037;-54
2022/08/09 04:24:07;;;;;;;1.98;0.57;;;;;;;10.17;100.00;102200.09;5019428;28;20018;-54
2022/08/09 04:26:33;;;;;;;1.45;0.70;;;;;;;10.13;100.00;102204.00;5021957;28;20116;-54
2022/08/09 04:28:58;;;;;;;1.45;0.73;;;;;;;10.08;100.00;102203.59;5019920;28;20026;-49
2022/08/09 04:31:24;;;;;;;2.38;0.40;;;;;;;10.03;100.00;102197.91;5021823;28;20038;-54
2022/08/09 04:33:49;;;;;;;0.98;0.70;;;;;;;10.01;100.00;102197.19;5018819;28;20379;-51
2022/08/09 04:36:16;;;;;;;0.40;0.40;;;;;;;10.02;100.00;102196.25;5021453;28;20414;-53
2022/08/09 04:38:41;;;;;;;1.13;0.60;;;;;;;9.97;100.00;102201.13;5028915;28;20025;-53
2022/08/09 04:41:06;;;;;;;4.13;0.82;;;;;;;9.92;100.00;102198.91;5025111;28;20037;-55
2022/08/09 04:43:32;;;;;;;2.20;1.10;;;;;;;9.92;100.00;102206.88;5023040;28;20025;-55
2022/08/09 04:45:57;;;;;;;1.00;1.00;;;;;;;9.97;100.00;102212.56;5022223;28;20041;-52
2022/08/09 04:48:23;;;;;;;0.52;0.50;;;;;;;9.97;100.00;102204.63;5026301;28;20378;-55
2022/08/09 04:50:48;;;;;;;1.05;1.05;;;;;;;9.94;100.00;102204.06;5024941;28;20041;-50
2022/08/09 04:53:13;;;;;;;1.17;0.45;;;;;;;9.92;100.00;102214.81;5024624;28;20029;-51
2022/08/09 04:55:40;;;;;;;1.67;0.50;;;;;;;9.91;100.00;102217.59;5024894;28;20113;-54
2022/08/09 04:58:06;;;;;;;3.90;1.23;;;;;;;9.88;100.00;102212.59;5022982;28;20062;-54
2022/08/09 05:00:34;;;;;;;1.92;0.60;;;;;;;9.91;100.00;102217.59;5014371;28;20471;-53
2022/08/09 05:03:01;;;;;;;0.63;0.63;;;;;;;9.93;100.00;102218.28;5026512;28;20443;-55
2022/08/09 05:05:27;;;;;;;0.30;0.30;;;;;;;9.94;100.00;102227.91;5030312;28;20022;-55
2022/08/09 05:07:52;;;;;;;0.75;0.75;;;;;;;9.91;100.00;102234.31;5028653;28;20505;-55
2022/08/09 05:10:18;;;;;;;1.90;0.80;;;;;;;9.89;100.00;102230.19;5027030;28;20025;-55
2022/08/09 05:12:43;;;;;;;0.55;0.40;;;;;;;9.87;100.00;102232.97;5028142;28;20386;-55
2022/08/09 05:15:09;;;;;;;1.02;0.93;;;;;;;9.88;100.00;102228.47;5024937;28;20390;-54
2022/08/09 05:17:34;;;;;;;0.57;0.57;;;;;;;9.88;100.00;102234.63;5030317;28;20404;-53
2022/08/09 05:19:59;;;;;;;2.67;0.50;;;;;;;9.87;100.00;102238.25;5017672;28;20548;-51
2022/08/09 05:22:25;;;;;;;0.63;0.30;;;;;;;9.85;100.00;102232.25;5027076;28;20052;-53
2022/08/09 05:24:50;;;;;;;2.33;0.40;;;;;;;9.85;100.00;102240.19;5029957;28;20026;-53
2022/08/09 05:27:15;;;;;;;0.80;0.80;;;;;;;9.89;100.00;102240.78;5018056;28;20037;-51
2022/08/09 05:29:41;;;;;;;1.38;1.08;;;;;;;9.91;100.00;102241.44;5028771;28;20090;-52
2022/08/09 05:32:06;;;;;;;1.17;0.90;;;;;;;9.95;100.00;102242.84;5027251;28;20433;-55
2022/08/09 05:34:32;;;;;;;2.60;1.58;;;;;;;9.93;100.00;102242.97;5026640;28;20512;-49
2022/08/09 05:36:59;;;;;;;0.50;0.50;;;;;;;9.94;100.00;102249.09;5023544;28;20104;-55
2022/08/09 05:39:24;;;;;;;0.85;0.50;;;;;;;9.93;100.00;102245.63;5027819;28;20044;-55
2022/08/09 05:41:50;;;;;;;1.10;0.60;;;;;;;9.96;100.00;102247.97;5021309;28;20598;-51
2022/08/09 05:44:16;;;;;;;3.72;0.85;;;;;;;9.97;100.00;102244.38;5026084;28;20040;-55
2022/08/09 05:46:41;;;;;;;2.22;0.77;;;;;;;10.03;100.00;102243.78;5017217;28;20021;-51
2022/08/09 05:49:07;;;;;;;2.70;0.60;;;;;;;10.15;100.00;102249.75;5023860;28;20368;-54
2022/08/09 05:51:32;;;;;;;0.65;0.65;;;;;;;10.25;100.00;102255.03;5028265;28;20049;-54
2022/08/09 05:53:58;;;;;;;0.73;0.40;;;;;;;10.30;100.00;102257.25;5024188;28;20022;-55
2022/08/09 05:56:24;;;;;;;0.60;0.55;;;;;;;10.35;100.00;102265.59;5019007;28;20095;-54
2022/08/09 05:58:50;;;;;;;2.40;0.88;;;;;;;10.43;100.00;102263.91;5023576;28;20026;-52
2022/08/09 06:01:15;;;;;;;0.60;0.60;;;;;;;10.52;100.00;102262.19;5015580;28;20087;-50
2022/08/09 06:03:41;;;;;;;0.98;0.93;;;;;;;10.58;100.00;102269.53;5023563;28;20371;-54
2022/08/09 06:06:06;;;;;;;5.35;0.90;;;;;;;10.65;100.00;102270.63;5016892;28;20040;-55
2022/08/09 06:08:32;;;;;;;2.25;1.10;;;;;;;10.69;100.00;102277.31;5015212;28;20044;-55
2022/08/09 06:10:57;;;;;;;2.53;0.65;;;;;;;10.74;100.00;102271.56;5016424;28;20045;-55
2022/08/09 06:13:24;;;;;;;1.27;0.75;;;;;;;10.83;100.00;102272.50;5020628;28;20487;-55
2022/08/09 06:15:50;;;;;;;3.20;0.82;;;;;;;10.92;100.00;102271.59;5018440;28;20025;-48
2022/08/09 06:18:16;;;;;;;2.85;0.60;;;;;;;11.03;100.00;102281.16;5018899;28;20029;-50
2022/08/09 06:20:41;;;;;;;2.35;1.15;;;;;;;11.14;100.00;102286.25;5027424;28;20486;-53
2022/08/09 06:23:07;;;;;;;1.55;0.98;;;;;;;11.24;100.00;102288.84;5023038;28;20039;-53
2022/08/09 06:25:32;;;;;;;1.50;1.48;;;;;;;11.37;100.00;102299.91;5017632;28;20060;-52
2022/08/09 06:27:58;;;;;;;5.00;1.38;;;;;;;11.50;100.00;102291.56;5020340;28;20049;-50
2022/08/09 06:30:23;;;;;;;1.85;1.02;;;;;;;11.62;100.00;102295.66;5009497;28;20119;-55
2022/08/09 06:32:51;;;;;;;3.17;1.00;;;;;;;11.81;100.00;102299.13;5020933;28;20030;-52
2022/08/09 06:35:17;;;;;;;1.75;0.68;;;;;;;11.90;100.00;102298.22;5027559;28;20033;-56
2022/08/09 06:37:43;;;;;;;2.65;0.95;;;;;;;12.05;100.00;102298.47;5028283;28;20108;-55
2022/08/09 06:40:09;;;;;;;1.23;1.23;;;;;;;12.31;100.00;102295.81;5023821;28;20159;-51
2022/08/09 06:42:34;;;;;;;3.13;2.60;;;;;;;12.55;100.00;102308.41;5016387;28;20037;-53
2022/08/09 06:45:00;;;;;;;4.55;0.73;;;;;;;12.72;100.00;102302.16;5013868;28;20355;-55
2022/08/09 06:47:25;;;;;;;1.20;1.20;;;;;;;12.93;100.00;102308.88;5010764;28;20029;-55
2022/08/09 06:49:52;;;;;;;3.80;0.90;;;;;;;13.08;100.00;102309.91;5024582;28;20022;-50
2022/08/09 06:52:17;;;;;;;1.05;0.77;;;;;;;13.17;100.00;102306.28;5016953;28;20485;-52
2022/08/09 06:54:43;;;;;;;6.47;1.95;;;;;;;13.23;100.00;102302.94;5018933;28;20045;-51
2022/08/09 06:57:10;;;;;;;1.35;0.90;;;;;;;13.27;100.00;102309.66;5026398;28;20848;-53
2022/08/09 06:59:36;;;;;;;1.38;1.13;;;;;;;13.36;100.00;102315.00;5025982;28;20029;-52
2022/08/09 07:02:01;;;;;;;1.75;0.90;;;;;;;13.53;100.00;102314.03;5025971;28;20037;-55
2022/08/09 07:04:27;;;;;;;1.55;1.00;;;;;;;13.71;100.00;102311.19;5021994;28;20036;-51
2022/08/09 07:06:52;;;;;;;6.28;2.33;;;;;;;13.93;100.00;102312.34;5016648;28;20060;-52
2022/08/09 07:09:17;;;;;;;0.80;0.80;;;;;;;14.12;100.00;102306.66;5019029;28;20034;-49
2022/08/09 07:11:43;;;;;;;2.00;1.15;;;;;;;14.34;100.00;102312.25;5018321;28;20046;-55
2022/08/09 07:14:08;;;;;;;1.27;1.02;;;;;;;14.58;100.00;102311.34;5025720;28;20030;-53
2022/08/09 07:16:33;;;;;;;3.05;1.13;;;;;;;14.84;100.00;102311.06;5020033;28;20151;-55
2022/08/09 07:18:59;;;;;;;1.80;0.95;;;;;;;15.16;100.00;102314.59;5026584;28;20103;-55
2022/08/09 07:21:24;;;;;;;2.05;0.82;;;;;;;15.40;100.00;102309.06;5023537;28;20022;-51
2022/08/09 07:23:49;;;;;;;0.73;0.73;;;;;;;15.67;100.00;102301.53;5020263;28;20038;-56
2022/08/09 07:26:15;;;;;;;2.60;0.32;;;;;;;15.94;100.00;102294.78;5019545;28;20045;-56
2022/08/09 07:28:40;;;;;;;2.58;0.95;;;;;;;16.35;100.00;102287.13;5016415;28;20032;-55
2022/08/09 07:31:06;;;;;;;0.40;0.40;;;;;;;16.63;100.00;102278.44;5026043;28;20033;-55
2022/08/09 07:33:32;;;;;;;2.25;0.55;;;;;;;16.94;100.00;102269.34;5026097;28;20479;-53
2022/08/09 07:35:58;;;;;;;0.40;0.40;;;;;;;17.27;100.00;102258.09;5022825;28;20026;-54
2022/08/09 07:38:24;;;;;;;1.13;0.10;;;;;;;17.41;100.00;102243.81;5019507;28;20033;-50
2022/08/09 07:40:51;;;;;;;0.10;0.10;;;;;;;17.50;100.00;102239.94;5023952;28;20396;-51
2022/08/09 07:43:17;;;;;;;0.47;0.20;;;;;;;17.65;100.00;102231.81;5019426;28;20033;-54
2022/08/09 07:45:42;;;;;;;1.33;0.20;;;;;;;17.79;100.00;102233.59;5021392;28;20539;-54
2022/08/09 07:48:10;;;;;;;0.80;0.15;;;;;;;17.96;100.00;102236.78;5029186;28;20095;-55
2022/08/09 07:50:39;;;;;;;1.05;0.10;;;;;;;18.17;100.00;102221.63;5028161;28;20033;-55
2022/08/09 07:53:05;;;;;;;2.35;0.90;;;;;;;18.33;100.00;102226.69;5027623;28;20769;-51
2022/08/09 07:55:32;;;;;;;0.13;0.00;;;;;;;18.46;100.00;102225.91;5031892;28;20065;-52
2022/08/09 07:57:57;;;;;;;1.98;0.10;;;;;;;18.61;100.00;102225.72;5019767;28;20071;-55
2022/08/09 08:00:24;;;;;;;6.07;0.20;;;;;;;18.80;100.00;102221.50;5028840;28;20113;-55
2022/08/09 08:02:50;;;;;;;2.47;0.15;;;;;;;18.91;100.00;102219.00;5029623;28;20425;-55
2022/08/09 08:05:15;;;;;;;0.10;0.00;;;;;;;19.11;100.00;102220.91;5025761;28;20136;-54
2022/08/09 08:07:40;;;;;;;0.98;0.00;;;;;;;19.23;100.00;102224.63;5018188;28;20025;-55
2022/08/09 08:10:07;;;;;;;0.10;0.00;;;;;;;19.38;100.00;102213.66;5019247;28;20037;-54
2022/08/09 08:12:32;;;;;;;0.10;0.00;;;;;;;19.57;100.00;102209.31;5024507;28;20029;-54
2022/08/09 08:14:58;;;;;;;0.00;0.00;;;;;;;19.69;100.00;102210.34;5018912;28;20101;-55
2022/08/09 08:17:24;;;;;;;19.30;0.65;;;;;;;19.73;100.00;102200.84;5026274;28;20037;-55
2022/08/09 08:19:49;;;;;;;0.10;0.10;;;;;;;19.87;100.00;102196.22;5022552;28;20036;-55
2022/08/09 08:22:14;;;;;;;0.75;0.00;;;;;;;19.96;100.00;102204.94;5020665;28;20025;-50
2022/08/09 08:24:40;;;;;;;0.65;0.03;;;;;;;20.09;100.00;102206.75;5024662;28;20036;-55
2022/08/09 08:27:05;;;;;;;0.10;0.00;;;;;;;20.29;100.00;102206.66;5021510;28;20033;-55
2022/08/09 08:29:31;;;;;;;1.35;0.10;;;;;;;20.52;100.00;102209.63;5028841;28;20037;-54
2022/08/09 08:31:56;;;;;;;0.52;0.03;;;;;;;20.66;100.00;102203.19;5025526;28;20048;-55
2022/08/09 08:34:21;;;;;;;1.17;0.10;;;;;;;20.84;100.00;102207.84;5020300;28;20152;-49
2022/08/09 08:36:47;;;;;;;0.28;0.10;;;;;;;20.99;100.00;102214.78;5027903;28;20045;-49
2022/08/09 08:39:13;;;;;;;0.00;0.00;;;;;;;21.12;100.00;102215.53;5021423;28;20053;-50
2022/08/09 08:41:39;;;;;;;0.38;0.00;;;;;;;21.30;100.00;102200.44;5025337;28;20029;-55
2022/08/09 08:44:07;;;;;;;0.13;0.00;;;;;;;21.43;100.00;102200.34;5024509;28;20084;-53
2022/08/09 08:46:39;;;;;;;1.27;0.00;;;;;;;21.47;100.00;102206.94;5029809;28;20028;-56
2022/08/09 08:49:09;;;;;;;0.25;0.00;;;;;;;21.42;100.00;102206.78;5026611;28;20038;-56
2022/08/09 08:51:35;;;;;;;0.80;0.00;;;;;;;21.48;100.00;102202.41;5028416;28;20041;-52
2022/08/09 08:54:06;;;;;;;0.10;0.00;;;;;;;21.66;100.00;102194.31;5030814;28;20443;-55
2022/08/09 08:56:36;;;;;;;0.10;0.00;;;;;;;21.65;100.00;102192.66;5019516;28;20022;-56
2022/08/09 08:59:08;;;;;;;1.45;0.00;;;;;;;21.77;100.00;102195.44;5013195;28;20486;-54
2022/08/09 09:01:40;;;;;;;0.50;0.00;;;;;;;21.94;100.00;102190.25;5016411;28;20486;-55
2022/08/09 09:04:11;;;;;;;0.40;0.10;;;;;;;22.24;100.00;102184.94;5026648;28;20124;-51
2022/08/09 09:06:42;;;;;;;1.00;0.10;;;;;;;22.42;100.00;102184.91;5025342;28;20538;-55
2022/08/09 09:09:09;;;;;;;0.20;0.00;;;;;;;22.59;100.00;102193.22;5023328;28;20531;-55
2022/08/09 09:11:35;;;;;;;5.10;0.10;;;;;;;22.74;100.00;102190.06;5026676;28;20119;-50
2022/08/09 09:14:10;;;;;;;0.00;0.00;;;;;;;22.80;100.00;102196.44;5018156;28;20612;-53
2022/08/09 09:16:36;;;;;;;0.00;0.00;;;;;;;22.83;100.00;102183.28;5024025;28;20025;-54
2022/08/09 09:19:07;;;;;;;0.10;0.00;;;;;;;22.83;100.00;102188.69;5020676;28;20041;-54
2022/08/09 09:21:32;;;;;;;0.00;0.00;;;;;;;22.92;100.00;102191.88;5016450;28;20044;-50
2022/08/09 09:24:03;;;;;;;0.45;0.00;;;;;;;22.86;100.00;102182.00;5019471;28;20027;-54
2022/08/09 09:26:29;;;;;;;2.92;0.00;;;;;;;22.96;100.00;102186.84;5016641;28;20112;-56
2022/08/09 09:28:55;;;;;;;0.30;0.00;;;;;;;23.06;100.00;102181.72;5019414;28;20033;-56
2022/08/09 09:31:22;;;;;;;0.65;0.10;;;;;;;23.17;100.00;102189.00;5020627;28;20044;-52
2022/08/09 09:33:48;;;;;;;0.00;0.00;;;;;;;23.12;100.00;102180.75;5025208;28;20028;-55
2022/08/09 09:36:13;;;;;;;2.42;0.00;;;;;;;23.32;100.00;102185.03;5022011;28;20022;-53
2022/08/09 09:38:56;;;;;;;2.38;0.00;;;;;;;23.55;100.00;102190.44;5018114;28;20045;-55
2022/08/09 09:41:22;;;;;;;1.60;0.40;;;;;;;23.73;100.00;102176.78;5016086;28;20065;-56
2022/08/09 09:43:47;;;;;;;1.20;0.00;;;;;;;23.78;100.00;102184.19;5025488;28;20045;-55
2022/08/09 09:46:13;;;;;;;0.13;0.00;;;;;;;23.87;100.00;102187.34;5014408;28;20064;-50
2022/08/09 09:48:53;;;;;;;0.20;0.20;;;;;;;23.89;100.00;102175.22;5017651;28;20080;-56
2022/08/09 09:51:19;;;;;;;0.10;0.10;;;;;;;23.92;100.00;102180.16;5017678;28;20039;-52
2022/08/09 09:53:45;;;;;;;0.63;0.00;;;;;;;24.12;100.00;102174.31;5016646;28;20467;-53
2022/08/09 09:56:10;;;;;;;0.80;0.10;;;;;;;24.34;100.00;102166.38;5011916;28;20040;-55
2022/08/09 09:58:45;;;;;;;0.25;0.00;;;;;;;24.40;100.00;102169.97;5021606;28;20554;-54
2022/08/09 10:01:20;;;;;;;1.38;0.00;;;;;;;24.41;100.00;102168.09;5018704;28;20133;-54
2022/08/09 10:03:48;;;;;;;1.15;0.10;;;;;;;24.44;100.00;102164.88;5021907;28;20037;-51
2022/08/09 10:06:14;;;;;;;0.47;0.28;;;;;;;24.77;100.00;102169.56;5016347;28;20029;-57
2022/08/09 10:08:41;;;;;;;0.13;0.00;;;;;;;24.92;100.00;102166.31;5023830;28;20025;-56
2022/08/09 10:11:23;;;;;;;0.40;0.00;;;;;;;25.01;100.00;102168.38;5021259;28;20053;-57
2022/08/09 10:13:50;;;;;;;2.33;0.15;;;;;;;25.17;100.00;102157.75;5020260;28;20576;-55
2022/08/09 10:16:26;;;;;;;2.10;0.30;;;;;;;25.30;100.00;102151.16;5022889;28;20030;-55
2022/08/09 10:18:54;;;;;;;0.17;0.08;;;;;;;25.11;100.00;102158.72;5017562;28;20034;-55
2022/08/09 10:21:19;;;;;;;1.08;0.30;;;;;;;25.17;100.00;102155.03;5025484;28;20029;-57
2022/08/09 10:23:45;;;;;;;0.65;0.08;;;;;;;25.41;100.00;102156.50;5018306;28;20021;-57
2022/08/09 10:26:12;;;;;;;0.40;0.00;;;;;;;25.42;100.00;102155.41;5018479;28;20087;-54
2022/08/09 10:28:40;;;;;;;0.30;0.10;;;;;;;25.57;99.21;102154.00;5015411;28;20037;-53
2022/08/09 10:31:07;;;;;;;1.45;0.20;;;;;;;25.73;98.08;102150.38;5014395;28;20079;-56
2022/08/09 10:33:34;;;;;;;0.85;0.22;;;;;;;25.81;97.31;102146.41;5021970;28;20053;-54
2022/08/09 10:36:00;;;;;;;1.02;0.30;;;;;;;25.85;96.45;102153.03;5020989;28;20036;-57
2022/08/09 10:38:26;;;;;;;2.72;0.10;;;;;;;25.96;95.50;102151.25;5013379;28;20435;-57
2022/08/09 10:40:51;;;;;;;2.45;0.03;;;;;;;26.13;93.47;102148.44;5018096;28;20052;-53
2022/08/09 10:43:17;;;;;;;0.45;0.00;;;;;;;26.13;93.56;102143.84;5011178;28;20033;-48
2022/08/09 10:45:44;;;;;;;1.95;0.03;;;;;;;26.14;91.01;102140.03;5019068;28;20028;-54
2022/08/09 10:48:18;;;;;;;6.10;0.10;;;;;;;26.27;90.49;102145.06;5019227;28;20040;-55
2022/08/09 10:51:13;;;;;;;3.53;1.15;;;;;;;26.39;87.50;102141.38;5014308;28;20052;-56
2022/08/09 10:53:53;;;;;;;3.00;0.20;;;;;;;26.62;88.11;102143.78;5021817;28;20433;-55
2022/08/09 10:56:27;;;;;;;3.42;0.10;;;;;;;26.68;85.90;102144.66;5016915;28;20040;-55
2022/08/09 10:58:55;;;;;;;0.77;0.50;;;;;;;26.67;87.83;102148.47;5008359;28;20151;-53
2022/08/09 11:01:34;;;;;;;1.02;0.20;;;;;;;26.38;85.37;102142.44;5015276;28;20029;-55
2022/08/09 11:04:14;;;;;;;2.33;0.20;;;;;;;26.38;87.05;102132.38;5017366;28;20144;-54
2022/08/09 11:06:42;;;;;;;0.75;0.20;;;;;;;26.58;88.17;102145.38;5012920;28;20030;-56
2022/08/09 11:09:09;;;;;;;0.28;0.10;;;;;;;26.80;85.67;102144.47;5017483;28;20036;-53
2022/08/09 11:11:53;;;;;;;2.25;0.17;;;;;;;27.01;82.31;102143.56;5019449;28;20536;-53
2022/08/09 11:14:33;;;;;;;2.00;0.20;;;;;;;26.92;82.49;102134.22;5017774;28;20152;-56
2022/08/09 11:16:58;;;;;;;1.30;0.17;;;;;;;27.01;82.92;102129.13;5024715;28;20470;-51
2022/08/09 11:19:56;;;;;;;4.85;1.00;;;;;;;26.96;79.08;102133.44;5023227;28;20032;-53
2022/08/09 11:22:47;;;;;;;2.50;0.00;;;;;;;27.18;79.59;102133.38;5020417;28;20583;-55